createdAt,value
2018-07-02T00:00:57.053Z,98238.59
2018-07-02T00:03:09.486Z,98240.95
2018-07-02T00:05:21.958Z,98242.48
2018-07-02T00:07:34.325Z,98244.34
2018-07-02T00:09:47.233Z,98238.87
2018-07-02T00:11:59.777Z,98237.06
2018-07-02T00:14:12.142Z,98240.39
2018-07-02T00:16:24.842Z,98239.41
2018-07-02T00:18:37.237Z,98235.75
2018-07-02T00:20:49.641Z,98237.34
2018-07-02T00:23:02.083Z,98232.08
2018-07-02T00:25:14.442Z,98239.41
2018-07-02T00:27:26.994Z,98238.31
2018-07-02T00:29:39.409Z,98231.06
2018-07-02T00:31:51.936Z,98225.53
2018-07-02T00:34:04.483Z,98229.59
2018-07-02T00:36:16.807Z,98228.55
2018-07-02T00:38:29.218Z,98229.41
2018-07-02T00:40:41.627Z,98232.63
2018-07-02T00:42:53.996Z,98225.94
2018-07-02T00:45:06.431Z,98219.71
2018-07-02T00:47:18.782Z,98218.25
2018-07-02T00:49:31.174Z,98214.23
2018-07-02T00:51:43.531Z,98217.14
2018-07-02T00:53:55.938Z,98221.70
2018-07-02T00:56:08.325Z,98216.52
2018-07-02T00:58:20.729Z,98215.75
2018-07-02T01:00:33.082Z,98214.75
2018-07-02T01:02:45.464Z,98220.56
2018-07-02T01:04:57.789Z,98216.35
2018-07-02T01:07:10.277Z,98214.29
2018-07-02T01:09:22.750Z,98216.81
2018-07-02T01:11:35.542Z,98215.88
2018-07-02T01:13:48.613Z,98219.44
2018-07-02T01:16:01.162Z,98220.41
2018-07-02T01:18:13.515Z,98213.86
2018-07-02T01:20:25.913Z,98224.36
2018-07-02T01:22:38.283Z,98225.30
2018-07-02T01:24:50.726Z,98224.74
2018-07-02T01:27:03.097Z,98225.30
2018-07-02T01:29:15.561Z,98224.63
2018-07-02T01:31:28.014Z,98225.78
2018-07-02T01:33:40.365Z,98230.02
2018-07-02T01:35:52.922Z,98230.02
2018-07-02T01:38:05.286Z,98229.34
2018-07-02T01:40:17.715Z,98231.20
2018-07-02T01:42:30.053Z,98238.02
2018-07-02T01:44:42.377Z,98236.36
2018-07-02T01:46:54.864Z,98236.54
2018-07-02T01:49:07.230Z,98239.34
2018-07-02T01:51:19.610Z,98241.95
2018-07-02T01:53:31.929Z,98245.66
2018-07-02T01:55:44.253Z,98244.41
2018-07-02T01:57:56.670Z,98239.59
2018-07-02T02:00:09.098Z,98239.84
2018-07-02T02:02:21.461Z,98233.74
2018-07-02T02:04:33.950Z,98235.88
2018-07-02T02:06:46.318Z,98235.39
2018-07-02T02:08:58.694Z,98239.50
2018-07-02T02:11:11.309Z,98238.78
2018-07-02T02:13:23.722Z,98238.74
2018-07-02T02:15:36.102Z,98235.75
2018-07-02T02:17:48.474Z,98241.47
2018-07-02T02:20:00.874Z,98238.96
2018-07-02T02:22:13.266Z,98241.37
2018-07-02T02:24:25.755Z,98238.79
2018-07-02T02:26:38.099Z,98237.84
2018-07-02T02:28:50.661Z,98239.44
2018-07-02T02:31:03.074Z,98237.02
2018-07-02T02:33:15.477Z,98239.77
2018-07-02T02:35:27.948Z,98239.20
2018-07-02T02:37:40.279Z,98242.66
2018-07-02T02:39:52.771Z,98241.83
2018-07-02T02:42:05.442Z,98235.28
2018-07-02T02:44:17.855Z,98241.39
2018-07-02T02:46:30.226Z,98243.77
2018-07-02T02:48:42.618Z,98235.47
2018-07-02T02:50:55.074Z,98233.20
2018-07-02T02:53:07.598Z,98232.37
2018-07-02T02:55:20.035Z,98232.63
2018-07-02T02:57:32.397Z,98241.69
2018-07-02T02:59:44.721Z,98245.47
2018-07-02T03:01:57.226Z,98246.92
2018-07-02T03:04:09.617Z,98240.27
2018-07-02T03:06:22.071Z,98235.28
2018-07-02T03:08:34.474Z,98237.27
2018-07-02T03:10:46.854Z,98236.30
2018-07-02T03:12:59.366Z,98234.52
2018-07-02T03:15:11.787Z,98234.22
2018-07-02T03:17:24.258Z,98225.87
2018-07-02T03:19:36.671Z,98231.59
2018-07-02T03:21:49.034Z,98239.11
2018-07-02T03:24:01.484Z,98241.24
2018-07-02T03:26:13.870Z,98245.07
2018-07-02T03:28:26.293Z,98249.69
2018-07-02T03:30:38.681Z,98244.11
2018-07-02T03:32:51.026Z,98247.93
2018-07-02T03:35:03.414Z,98247.00
2018-07-02T03:37:15.782Z,98243.31
2018-07-02T03:39:28.138Z,98246.55
2018-07-02T03:41:40.502Z,98250.10
2018-07-02T03:43:52.962Z,98251.78
2018-07-02T03:46:05.307Z,98256.54
2018-07-02T03:48:17.681Z,98250.00
2018-07-02T03:50:30.173Z,98246.90
2018-07-02T03:52:42.524Z,98237.98
2018-07-02T03:54:54.850Z,98250.34
2018-07-02T03:57:07.291Z,98254.06
2018-07-02T03:59:19.648Z,98246.55
2018-07-02T04:01:32.166Z,98243.34
2018-07-02T04:03:44.505Z,98240.37
2018-07-02T04:05:56.930Z,98245.86
2018-07-02T04:08:09.489Z,98248.34
2018-07-02T04:10:22.030Z,98258.09
2018-07-02T04:12:34.394Z,98254.98
2018-07-02T04:14:46.965Z,98258.11
2018-07-02T04:16:59.310Z,98255.84
2018-07-02T04:19:12.410Z,98261.08
2018-07-02T04:21:24.808Z,98260.23
2018-07-02T04:23:37.167Z,98261.88
2018-07-02T04:25:49.708Z,98267.09
2018-07-02T04:28:02.182Z,98266.27
2018-07-02T04:30:14.585Z,98266.95
2018-07-02T04:32:27.006Z,98268.98
2018-07-02T04:34:39.354Z,98270.02
2018-07-02T04:36:51.885Z,98267.59
2018-07-02T04:39:06.818Z,98263.03
2018-07-02T04:41:19.346Z,98267.88
2018-07-02T04:43:31.750Z,98263.63
2018-07-02T04:45:44.118Z,98266.47
2018-07-02T04:47:56.457Z,98266.94
2018-07-02T04:50:08.874Z,98262.27
2018-07-02T04:52:21.274Z,98260.47
2018-07-02T04:54:33.731Z,98268.77
2018-07-02T04:56:46.242Z,98264.48
2018-07-02T04:58:58.743Z,98267.30
2018-07-02T05:01:11.084Z,98264.77
2018-07-02T05:03:23.525Z,98266.30
2018-07-02T05:05:35.882Z,98258.98
2018-07-02T05:07:48.322Z,98261.20
2018-07-02T05:10:00.690Z,98255.45
2018-07-02T05:12:13.045Z,98257.41
2018-07-02T05:14:25.450Z,98259.11
2018-07-02T05:16:37.858Z,98257.88
2018-07-02T05:18:50.190Z,98261.15
2018-07-02T05:21:02.586Z,98258.91
2018-07-02T05:23:14.927Z,98259.34
2018-07-02T05:25:27.358Z,98257.36
2018-07-02T05:27:39.841Z,98251.42
2018-07-02T05:29:52.263Z,98250.95
2018-07-02T05:32:04.686Z,98254.20
2018-07-02T05:34:17.148Z,98256.23
2018-07-02T05:36:29.537Z,98250.34
2018-07-02T05:38:41.877Z,98257.48
2018-07-02T05:40:54.373Z,98254.64
2018-07-02T05:43:06.769Z,98253.97
2018-07-02T05:45:19.113Z,98253.88
2018-07-02T05:47:31.486Z,98253.53
2018-07-02T05:49:44.070Z,98256.84
2018-07-02T05:51:56.362Z,98256.29
2018-07-02T05:54:08.926Z,98253.70
2018-07-02T05:56:21.274Z,98258.13
2018-07-02T05:58:33.821Z,98250.06
2018-07-02T06:00:46.182Z,98257.16
2018-07-02T06:02:58.586Z,98251.38
2018-07-02T06:05:11.034Z,98247.03
2018-07-02T06:07:23.381Z,98253.03
2018-07-02T06:09:35.878Z,98251.64
2018-07-02T06:11:48.347Z,98256.62
2018-07-02T06:14:00.814Z,98259.00
2018-07-02T06:16:13.169Z,98256.88
2018-07-02T06:18:25.537Z,98261.20
2018-07-02T06:20:38.103Z,98268.55
2018-07-02T06:22:50.521Z,98273.95
2018-07-02T06:25:03.007Z,98270.16
2018-07-02T06:27:15.329Z,98273.86
2018-07-02T06:29:27.734Z,98272.16
2018-07-02T06:31:40.073Z,98272.30
2018-07-02T06:33:52.542Z,98271.17
2018-07-02T06:36:04.939Z,98265.55
2018-07-02T06:38:17.449Z,98265.46
2018-07-02T06:40:30.007Z,98276.56
2018-07-02T06:42:42.430Z,98273.33
2018-07-02T06:44:54.753Z,98276.44
2018-07-02T06:47:07.118Z,98275.99
2018-07-02T06:49:19.461Z,98275.41
2018-07-02T06:51:32.074Z,98280.89
2018-07-02T06:53:44.430Z,98274.67
2018-07-02T06:55:56.906Z,98279.20
2018-07-02T06:58:10.038Z,98280.62
2018-07-02T07:00:25.417Z,98277.27
2018-07-02T07:02:37.778Z,98272.56
2018-07-02T07:04:50.153Z,98267.47
2018-07-02T07:07:02.568Z,98270.78
2018-07-02T07:09:14.898Z,98277.40
2018-07-02T07:11:27.295Z,98265.94
2018-07-02T07:13:39.645Z,98264.88
2018-07-02T07:15:52.039Z,98266.33
2018-07-02T07:18:04.694Z,98265.97
2018-07-02T07:20:17.095Z,98270.09
2018-07-02T07:22:29.682Z,98267.36
2018-07-02T07:24:42.222Z,98266.44
2018-07-02T07:26:54.562Z,98260.15
2018-07-02T07:29:06.978Z,98268.63
2018-07-02T07:31:19.545Z,98262.77
2018-07-02T07:33:31.946Z,98255.42
2018-07-02T07:35:44.522Z,98260.19
2018-07-02T07:37:57.077Z,98259.05
2018-07-02T07:40:09.511Z,98257.81
2018-07-02T07:42:22.013Z,98254.84
2018-07-02T07:44:34.520Z,98255.81
2018-07-02T07:46:46.924Z,98257.23
2018-07-02T07:48:59.270Z,98259.46
2018-07-02T07:51:11.610Z,98262.71
2018-07-02T07:53:27.980Z,98253.34
2018-07-02T07:55:43.041Z,98258.62
2018-07-02T07:57:55.414Z,98264.97
2018-07-02T08:00:07.918Z,98266.44
2018-07-02T08:02:20.232Z,98269.51
2018-07-02T08:04:32.693Z,98264.49
2018-07-02T08:06:47.790Z,98258.66
2018-07-02T08:09:02.322Z,98257.22
2018-07-02T08:11:14.751Z,98247.16
2018-07-02T08:13:27.174Z,98250.98
2018-07-02T08:15:39.578Z,98252.48
2018-07-02T08:17:52.006Z,98248.44
2018-07-02T08:20:05.178Z,98243.79
2018-07-02T08:22:17.602Z,98241.98
2018-07-02T08:24:29.959Z,98246.93
2018-07-02T08:26:49.395Z,98251.78
2018-07-02T08:29:01.954Z,98241.86
2018-07-02T08:31:14.486Z,98229.77
2018-07-02T08:33:26.831Z,98231.53
2018-07-02T08:35:39.166Z,98235.49
2018-07-02T08:37:51.513Z,98231.80
2018-07-02T08:40:04.503Z,98229.55
2018-07-02T08:42:17.182Z,98226.38
2018-07-02T08:44:29.626Z,98232.25
2018-07-02T08:46:42.872Z,98223.05
2018-07-02T08:48:55.262Z,98221.75
2018-07-02T08:51:07.621Z,98212.70
2018-07-02T08:53:20.065Z,98214.47
2018-07-02T08:55:32.598Z,98211.81
2018-07-02T08:57:45.062Z,98209.34
2018-07-02T08:59:57.449Z,98202.52
2018-07-02T09:02:10.749Z,98212.89
2018-07-02T09:04:23.151Z,98210.07
2018-07-02T09:06:35.534Z,98214.81
2018-07-02T09:08:48.033Z,98220.66
2018-07-02T09:11:00.368Z,98209.91
2018-07-02T09:13:12.737Z,98202.37
2018-07-02T09:15:25.158Z,98208.70
2018-07-02T09:17:37.512Z,98216.96
2018-07-02T09:19:50.377Z,98214.50
2018-07-02T09:22:02.877Z,98201.70
2018-07-02T09:24:15.178Z,98197.33
2018-07-02T09:26:27.557Z,98201.94
2018-07-02T09:28:39.970Z,98216.02
2018-07-02T09:30:52.356Z,98208.86
2018-07-02T09:33:04.778Z,98213.52
2018-07-02T09:35:21.975Z,98206.25
2018-07-02T09:37:34.362Z,98209.06
2018-07-02T09:39:46.746Z,98205.21
2018-07-02T09:41:59.134Z,98200.70
2018-07-02T09:44:11.499Z,98199.61
2018-07-02T09:46:23.892Z,98205.52
2018-07-02T09:48:36.241Z,98202.52
2018-07-02T09:50:48.609Z,98203.61
2018-07-02T09:53:00.916Z,98201.75
2018-07-02T09:55:13.303Z,98205.75
2018-07-02T09:57:25.754Z,98211.72
2018-07-02T09:59:38.137Z,98204.22
2018-07-02T10:01:50.771Z,98206.68
2018-07-02T10:04:03.142Z,98205.64
2018-07-02T10:06:15.527Z,98206.29
2018-07-02T10:08:27.914Z,98203.05
2018-07-02T10:10:40.374Z,98204.91
2018-07-02T10:12:52.743Z,98206.06
2018-07-02T10:15:05.637Z,98211.61
2018-07-02T10:17:18.226Z,98201.75
2018-07-02T10:19:30.666Z,98204.53
2018-07-02T10:21:43.179Z,98200.63
2018-07-02T10:23:56.877Z,98197.44
2018-07-02T10:26:09.163Z,98197.73
2018-07-02T10:28:21.737Z,98195.69
2018-07-02T10:30:34.085Z,98199.30
2018-07-02T10:32:46.720Z,98200.63
2018-07-02T10:34:59.101Z,98197.84
2018-07-02T10:37:14.206Z,98198.77
2018-07-02T10:39:26.595Z,98196.02
2018-07-02T10:41:38.992Z,98199.19
2018-07-02T10:43:51.492Z,98203.01
2018-07-02T10:46:03.835Z,98202.02
2018-07-02T10:48:17.034Z,98199.08
2018-07-02T10:50:30.187Z,98206.75
2018-07-02T10:52:42.546Z,98204.73
2018-07-02T10:54:54.994Z,98202.27
2018-07-02T10:57:07.402Z,98200.41
2018-07-02T10:59:19.831Z,98207.08
2018-07-02T11:01:32.231Z,98198.66
2018-07-02T11:03:44.701Z,98203.78
2018-07-02T11:05:57.056Z,98197.66
2018-07-02T11:08:09.580Z,98198.05
2018-07-02T11:10:22.150Z,98192.20
2018-07-02T11:12:34.538Z,98184.89
2018-07-02T11:14:46.969Z,98192.57
2018-07-02T11:16:59.353Z,98190.44
2018-07-02T11:19:11.681Z,98196.39
2018-07-02T11:21:24.135Z,98191.80
2018-07-02T11:23:36.535Z,98193.31
2018-07-02T11:25:49.135Z,98196.69
2018-07-02T11:28:02.462Z,98193.31
2018-07-02T11:30:14.911Z,98195.67
2018-07-02T11:32:27.258Z,98188.27
2018-07-02T11:34:39.610Z,98188.88
2018-07-02T11:36:51.958Z,98192.90
2018-07-02T11:39:10.738Z,98198.03
2018-07-02T11:41:23.109Z,98186.53
2018-07-02T11:43:35.576Z,98194.34
2018-07-02T11:45:47.966Z,98191.06
2018-07-02T11:48:00.438Z,98190.95
2018-07-02T11:50:12.919Z,98188.59
2018-07-02T11:52:25.374Z,98189.53
2018-07-02T11:54:37.813Z,98178.95
2018-07-02T11:56:50.430Z,98179.77
2018-07-02T11:59:02.830Z,98180.47
2018-07-02T12:01:15.314Z,98182.41
2018-07-02T12:03:28.657Z,98179.72
2018-07-02T12:05:41.115Z,98188.27
2018-07-02T12:07:53.718Z,98181.81
2018-07-02T12:10:06.127Z,98183.37
2018-07-02T12:12:18.545Z,98185.82
2018-07-02T12:14:31.010Z,98185.41
2018-07-02T12:16:43.366Z,98178.84
2018-07-02T12:18:55.691Z,98183.25
2018-07-02T12:21:08.101Z,98180.58
2018-07-02T12:23:20.637Z,98190.85
2018-07-02T12:25:33.453Z,98191.06
2018-07-02T12:27:45.781Z,98185.91
2018-07-02T12:29:58.149Z,98189.30
2018-07-02T12:32:10.542Z,98186.75
2018-07-02T12:34:22.966Z,98186.33
2018-07-02T12:36:35.321Z,98184.55
2018-07-02T12:38:47.690Z,98182.72
2018-07-02T12:41:00.130Z,98178.30
2018-07-02T12:43:12.482Z,98176.97
2018-07-02T12:45:25.285Z,98180.66
2018-07-02T12:47:37.645Z,98179.66
2018-07-02T12:49:50.039Z,98178.22
2018-07-02T12:52:02.629Z,98168.97
2018-07-02T12:54:15.029Z,98170.42
2018-07-02T12:56:27.360Z,98169.67
2018-07-02T12:58:39.815Z,98174.31
2018-07-02T13:00:52.214Z,98169.71
2018-07-02T13:03:04.839Z,98176.28
2018-07-02T13:05:17.198Z,98174.75
2018-07-02T13:07:29.586Z,98174.31
2018-07-02T13:09:42.019Z,98170.22
2018-07-02T13:11:54.363Z,98170.11
2018-07-02T13:14:10.581Z,98170.89
2018-07-02T13:16:23.050Z,98179.22
2018-07-02T13:18:35.413Z,98167.38
2018-07-02T13:20:50.564Z,98163.81
2018-07-02T13:23:03.889Z,98153.55
2018-07-02T13:25:16.210Z,98145.97
2018-07-02T13:27:28.866Z,98148.45
2018-07-02T13:29:41.315Z,98137.73
2018-07-02T13:31:53.660Z,98149.16
2018-07-02T13:34:06.010Z,98148.30
2018-07-02T13:36:18.382Z,98158.38
2018-07-02T13:38:30.711Z,98147.87
2018-07-02T13:40:43.219Z,98142.05
2018-07-02T13:42:55.762Z,98139.87
2018-07-02T13:45:08.161Z,98140.70
2018-07-02T13:47:20.481Z,98139.28
2018-07-02T13:49:32.867Z,98140.73
2018-07-02T13:51:45.238Z,98137.36
2018-07-02T13:53:57.620Z,98133.31
2018-07-02T13:56:10.043Z,98133.13
2018-07-02T13:58:22.426Z,98127.27
2018-07-02T14:00:34.827Z,98124.59
2018-07-02T14:02:47.429Z,98122.44
2018-07-02T14:04:59.770Z,98112.46
2018-07-02T14:07:12.187Z,98110.83
2018-07-02T14:09:24.609Z,98107.45
2018-07-02T14:11:38.286Z,98117.40
2018-07-02T14:13:52.662Z,98120.36
2018-07-02T14:16:05.310Z,98107.74
2018-07-02T14:18:17.790Z,98117.40
2018-07-02T14:20:30.256Z,98117.22
2018-07-02T14:22:42.598Z,98118.33
2018-07-02T14:24:55.207Z,98116.26
2018-07-02T14:27:07.634Z,98117.22
2018-07-02T14:29:19.935Z,98120.70
2018-07-02T14:31:32.410Z,98117.00
2018-07-02T14:33:47.565Z,98114.91
2018-07-02T14:35:59.933Z,98114.10
2018-07-02T14:38:12.298Z,98107.75
2018-07-02T14:40:24.694Z,98118.73
2018-07-02T14:42:37.083Z,98113.69
2018-07-02T14:44:49.666Z,98109.59
2018-07-02T14:47:02.077Z,98110.42
2018-07-02T14:49:14.384Z,98107.12
2018-07-02T14:51:26.759Z,98107.73
2018-07-02T14:53:39.355Z,98107.65
2018-07-02T14:55:51.805Z,98103.31
2018-07-02T14:58:04.499Z,98108.66
2018-07-02T15:00:16.943Z,98103.72
2018-07-02T15:02:29.274Z,98102.72
2018-07-02T15:04:43.624Z,98106.72
2018-07-02T15:06:56.009Z,98102.75
2018-07-02T15:09:10.730Z,98101.56
2018-07-02T15:11:23.222Z,98098.48
2018-07-02T15:13:35.960Z,98094.07
2018-07-02T15:15:48.307Z,98097.78
2018-07-02T15:18:00.695Z,98096.04
2018-07-02T15:20:13.038Z,98103.13
2018-07-02T15:22:26.325Z,98104.75
2018-07-02T15:24:38.723Z,98101.90
2018-07-02T15:26:51.314Z,98098.70
2018-07-02T15:29:03.714Z,98096.04
2018-07-02T15:31:16.198Z,98096.75
2018-07-02T15:33:28.631Z,98091.81
2018-07-02T15:35:41.223Z,98094.08
2018-07-02T15:37:54.090Z,98099.41
2018-07-02T15:40:06.489Z,98092.22
2018-07-02T15:42:18.857Z,98093.55
2018-07-02T15:44:31.253Z,98093.66
2018-07-02T15:46:43.711Z,98093.66
2018-07-02T15:48:56.077Z,98091.81
2018-07-02T15:51:08.410Z,98099.63
2018-07-02T15:53:20.814Z,98092.55
2018-07-02T15:55:33.277Z,98095.20
2018-07-02T15:57:45.692Z,98099.73
2018-07-02T15:59:58.222Z,98095.31
2018-07-02T16:02:10.757Z,98095.61
2018-07-02T16:04:23.128Z,98100.66
2018-07-02T16:06:35.493Z,98092.12
2018-07-02T16:08:47.952Z,98092.83
2018-07-02T16:11:00.369Z,98091.61
2018-07-02T16:13:12.794Z,98098.09
2018-07-02T16:15:25.137Z,98095.50
2018-07-02T16:17:37.554Z,98097.66
2018-07-02T16:19:50.101Z,98092.02
2018-07-02T16:22:03.308Z,98090.06
2018-07-02T16:24:15.716Z,98092.02
2018-07-02T16:26:28.106Z,98087.48
2018-07-02T16:28:40.548Z,98083.30
2018-07-02T16:30:53.006Z,98083.81
2018-07-02T16:33:05.583Z,98085.96
2018-07-02T16:35:17.994Z,98086.88
2018-07-02T16:37:30.388Z,98085.44
2018-07-02T16:39:42.764Z,98085.44
2018-07-02T16:41:55.131Z,98082.16
2018-07-02T16:44:07.823Z,98082.77
2018-07-02T16:46:20.198Z,98077.73
2018-07-02T16:48:32.684Z,98077.45
2018-07-02T16:50:45.022Z,98074.14
2018-07-02T16:52:57.382Z,98074.58
2018-07-02T16:55:09.839Z,98079.89
2018-07-02T16:57:22.223Z,98076.52
2018-07-02T16:59:34.577Z,98075.28
2018-07-02T17:01:47.009Z,98079.51
2018-07-02T17:03:59.382Z,98073.84
2018-07-02T17:06:11.814Z,98073.32
2018-07-02T17:08:24.336Z,98079.17
2018-07-02T17:10:36.754Z,98076.42
2018-07-02T17:12:49.226Z,98072.50
2018-07-02T17:15:01.772Z,98078.58
2018-07-02T17:17:14.202Z,98078.16
2018-07-02T17:19:26.565Z,98076.61
2018-07-02T17:21:39.023Z,98081.65
2018-07-02T17:23:51.465Z,98085.35
2018-07-02T17:26:03.946Z,98080.30
2018-07-02T17:28:16.362Z,98086.05
2018-07-02T17:30:28.742Z,98082.27
2018-07-02T17:32:41.078Z,98083.90
2018-07-02T17:34:53.455Z,98086.25
2018-07-02T17:37:05.848Z,98089.81
2018-07-02T17:39:18.254Z,98097.39
2018-07-02T17:41:30.614Z,98095.73
2018-07-02T17:43:43.066Z,98096.46
2018-07-02T17:45:55.445Z,98092.64
2018-07-02T17:48:07.901Z,98103.83
2018-07-02T17:50:20.533Z,98101.47
2018-07-02T17:52:32.901Z,98097.48
2018-07-02T17:54:45.255Z,98100.73
2018-07-02T17:57:01.781Z,98101.70
2018-07-02T17:59:14.195Z,98105.31
2018-07-02T18:01:26.865Z,98104.19
2018-07-02T18:03:39.226Z,98112.59
2018-07-02T18:05:51.639Z,98099.13
2018-07-02T18:08:04.146Z,98104.77
2018-07-02T18:10:16.502Z,98105.47
2018-07-02T18:12:29.027Z,98104.10
2018-07-02T18:14:41.330Z,98104.70
2018-07-02T18:16:53.692Z,98101.22
2018-07-02T18:19:06.169Z,98101.28
2018-07-02T18:21:18.498Z,98100.28
2018-07-02T18:23:30.851Z,98104.73
2018-07-02T18:25:43.302Z,98108.99
2018-07-02T18:27:55.729Z,98107.05
2018-07-02T18:30:08.383Z,98100.48
2018-07-02T18:32:20.750Z,98107.45
2018-07-02T18:34:33.110Z,98107.28
2018-07-02T18:36:45.541Z,98103.15
2018-07-02T18:38:57.935Z,98111.70
2018-07-02T18:43:33.443Z,98091.42
2018-07-02T18:45:45.842Z,98101.26
2018-07-02T18:47:58.242Z,98105.28
2018-07-02T18:50:10.710Z,98109.88
2018-07-02T18:52:23.256Z,98117.30
2018-07-02T18:54:35.649Z,98124.81
2018-07-02T18:56:48.103Z,98118.98
2018-07-02T18:59:00.601Z,98121.72
2018-07-02T19:01:13.044Z,98117.50
2018-07-02T19:03:25.533Z,98128.19
2018-07-02T19:05:38.016Z,98128.33
2018-07-02T19:07:50.423Z,98127.45
2018-07-02T19:10:02.950Z,98126.27
2018-07-02T19:12:15.302Z,98133.16
2018-07-02T19:14:27.717Z,98136.70
2018-07-02T19:16:40.312Z,98136.53
2018-07-02T19:18:52.710Z,98141.41
2018-07-02T19:21:05.269Z,98138.92
2018-07-02T19:23:17.618Z,98145.63
2018-07-02T19:25:30.169Z,98146.03
2018-07-02T19:27:42.654Z,98150.45
2018-07-02T19:29:55.335Z,98154.88
2018-07-02T19:32:07.667Z,98158.84
2018-07-02T19:34:20.159Z,98159.49
2018-07-02T19:36:32.622Z,98160.39
2018-07-02T19:38:45.072Z,98163.48
2018-07-02T19:40:57.714Z,98160.97
2018-07-02T19:43:10.099Z,98167.45
2018-07-02T19:45:22.598Z,98172.24
2018-07-02T19:47:34.965Z,98172.37
2018-07-02T19:49:47.442Z,98176.44
2018-07-02T19:51:59.832Z,98176.75
2018-07-02T19:54:12.223Z,98185.81
2018-07-02T19:56:24.902Z,98189.38
2018-07-02T19:58:37.443Z,98186.81
2018-07-02T20:00:49.934Z,98190.14
2018-07-02T20:03:02.330Z,98196.47
2018-07-02T20:05:14.810Z,98203.13
2018-07-02T20:07:27.167Z,98199.68
2018-07-02T20:09:39.625Z,98204.83
2018-07-02T20:11:52.209Z,98207.19
2018-07-02T20:14:04.780Z,98210.81
2018-07-02T20:16:17.300Z,98212.00
2018-07-02T20:18:29.664Z,98215.95
2018-07-02T20:20:42.214Z,98217.13
2018-07-02T20:22:54.670Z,98224.06
2018-07-02T20:25:07.556Z,98224.55
2018-07-02T20:27:19.989Z,98223.55
2018-07-02T20:29:32.386Z,98228.52
2018-07-02T20:31:44.913Z,98232.66
2018-07-02T20:33:57.370Z,98232.66
2018-07-02T20:36:09.786Z,98236.29
2018-07-02T20:38:22.163Z,98235.97
2018-07-02T20:40:34.596Z,98244.55
2018-07-02T20:42:46.964Z,98241.41
2018-07-02T20:45:00.014Z,98250.19
2018-07-02T20:47:12.622Z,98249.55
2018-07-02T20:49:25.150Z,98256.19
2018-07-02T20:51:37.551Z,98259.52
2018-07-02T20:53:49.948Z,98263.34
2018-07-02T20:56:02.430Z,98260.01
2018-07-02T20:58:14.915Z,98258.20
2018-07-02T21:00:29.834Z,98258.03
2018-07-02T21:02:42.285Z,98263.98
2018-07-02T21:04:54.769Z,98262.52
2018-07-02T21:07:07.154Z,98262.98
2018-07-02T21:09:19.682Z,98267.45
2018-07-02T21:11:32.206Z,98265.45
2018-07-02T21:13:44.624Z,98263.77
2018-07-02T21:15:56.989Z,98267.36
2018-07-02T21:18:09.393Z,98272.77
2018-07-02T21:20:21.838Z,98280.48
2018-07-02T21:22:34.170Z,98270.35
2018-07-02T21:24:46.567Z,98273.30
2018-07-02T21:26:59.414Z,98272.14
2018-07-02T21:29:11.761Z,98272.39
2018-07-02T21:31:24.149Z,98277.27
2018-07-02T21:33:36.707Z,98277.47
2018-07-02T21:35:49.081Z,98279.42
2018-07-02T21:38:01.468Z,98285.63
2018-07-02T21:40:13.870Z,98283.73
2018-07-02T21:42:26.174Z,98293.58
2018-07-02T21:44:38.525Z,98291.38
2018-07-02T21:46:51.043Z,98290.98
2018-07-02T21:49:03.500Z,98285.87
2018-07-02T21:51:15.922Z,98284.53
2018-07-02T21:53:28.351Z,98283.64
2018-07-02T21:55:40.832Z,98284.63
2018-07-02T21:57:53.178Z,98290.89
2018-07-02T22:00:08.714Z,98295.05
2018-07-02T22:02:21.219Z,98290.59
2018-07-02T22:04:33.696Z,98290.98
2018-07-02T22:06:46.062Z,98286.00
2018-07-02T22:08:58.530Z,98290.20
2018-07-02T22:11:10.993Z,98288.85
2018-07-02T22:13:23.338Z,98291.73
2018-07-02T22:15:35.926Z,98286.96
2018-07-02T22:17:48.250Z,98291.69
2018-07-02T22:20:00.688Z,98289.39
2018-07-02T22:22:13.106Z,98291.56
2018-07-02T22:24:25.483Z,98298.77
2018-07-02T22:26:38.722Z,98297.08
2018-07-02T22:28:51.077Z,98292.92
2018-07-02T22:31:03.714Z,98293.49
2018-07-02T22:33:16.070Z,98294.52
2018-07-02T22:35:28.542Z,98297.44
2018-07-02T22:37:40.891Z,98296.56
2018-07-02T22:39:53.279Z,98291.59
2018-07-02T22:42:05.793Z,98294.17
2018-07-02T22:44:18.172Z,98296.36
2018-07-02T22:46:30.597Z,98303.24
2018-07-02T22:48:43.130Z,98299.73
2018-07-02T22:50:55.522Z,98297.11
2018-07-02T22:53:07.939Z,98297.82
2018-07-02T22:55:20.311Z,98296.78
2018-07-02T22:57:32.717Z,98296.94
2018-07-02T22:59:45.141Z,98294.31
2018-07-02T23:01:57.523Z,98290.77
2018-07-02T23:04:09.962Z,98296.88
2018-07-02T23:06:22.262Z,98295.41
2018-07-02T23:08:34.626Z,98295.13
2018-07-02T23:10:47.327Z,98291.79
2018-07-02T23:12:59.801Z,98284.55
2018-07-02T23:15:12.220Z,98292.00
2018-07-02T23:17:24.525Z,98295.47
2018-07-02T23:19:36.910Z,98287.78
2018-07-02T23:21:49.565Z,98290.53
2018-07-02T23:24:01.970Z,98286.86
2018-07-02T23:26:14.290Z,98282.62
2018-07-02T23:28:26.682Z,98282.84
2018-07-02T23:30:39.093Z,98282.29
2018-07-02T23:32:51.429Z,98279.17
2018-07-02T23:35:03.814Z,98276.63
2018-07-02T23:37:16.156Z,98275.84
2018-07-02T23:39:28.481Z,98282.00
2018-07-02T23:41:41.526Z,98282.80
2018-07-02T23:43:53.998Z,98286.51
2018-07-02T23:46:06.476Z,98280.36
2018-07-02T23:48:18.822Z,98278.48
2018-07-02T23:50:31.145Z,98283.77
2018-07-02T23:52:43.604Z,98287.97
2018-07-02T23:54:56.121Z,98285.18
2018-07-02T23:57:08.466Z,98285.70
2018-07-02T23:59:20.879Z,98287.84
